sensor_id;sensor_type;location;lat;lon;timestamp;pressure;altitude;pressure_sealevel;temperature;humidity
19789;BME280;10054;59.332;18.244;2023-11-19T00:00:29;101462.48;;;-2.81;100.00
19789;BME280;10054;59.332;18.244;2023-11-19T00:02:58;101450.02;;;-2.80;100.00
19789;BME280;10054;59.332;18.244;2023-11-19T00:05:27;101452.61;;;-2.77;100.00
19789;BME280;10054;59.332;18.244;2023-11-19T00:07:56;101453.09;;;-2.69;100.00
19789;BME280;10054;59.332;18.244;2023-11-19T00:10:25;101455.27;;;-2.63;100.00
19789;BME280;10054;59.332;18.244;2023-11-19T00:12:54;101448.80;;;-2.65;100.00
19789;BME280;10054;59.332;18.244;2023-11-19T00:15:24;101447.92;;;-2.69;100.00
19789;BME280;10054;59.332;18.244;2023-11-19T00:17:53;101440.59;;;-2.72;100.00
19789;BME280;10054;59.332;18.244;2023-11-19T00:20:22;101439.70;;;-2.76;100.00
19789;BME280;10054;59.332;18.244;2023-11-19T00:22:51;101448.73;;;-2.79;100.00
19789;BME280;10054;59.332;18.244;2023-11-19T00:25:21;101447.42;;;-2.82;100.00
19789;BME280;10054;59.332;18.244;2023-11-19T00:27:51;101437.52;;;-2.82;100.00
19789;BME280;10054;59.332;18.244;2023-11-19T00:30:21;101437.48;;;-2.88;100.00
19789;BME280;10054;59.332;18.244;2023-11-19T00:32:50;101427.16;;;-2.90;100.00
19789;BME280;10054;59.332;18.244;2023-11-19T00:35:19;101423.72;;;-2.89;100.00
19789;BME280;10054;59.332;18.244;2023-11-19T00:37:48;101418.14;;;-2.85;100.00
19789;BME280;10054;59.332;18.244;2023-11-19T00:40:17;101413.83;;;-2.86;100.00
19789;BME280;10054;59.332;18.244;2023-11-19T00:42:47;101415.52;;;-2.93;100.00
19789;BME280;10054;59.332;18.244;2023-11-19T00:45:16;101411.63;;;-2.96;100.00
19789;BME280;10054;59.332;18.244;2023-11-19T00:47:45;101407.77;;;-3.01;100.00
19789;BME280;10054;59.332;18.244;2023-11-19T00:50:14;101407.75;;;-3.04;100.00
19789;BME280;10054;59.332;18.244;2023-11-19T00:52:43;101411.59;;;-3.08;100.00
19789;BME280;10054;59.332;18.244;2023-11-19T00:55:12;101412.89;;;-3.08;100.00
19789;BME280;10054;59.332;18.244;2023-11-19T00:57:40;101399.61;;;-2.99;100.00
19789;BME280;10054;59.332;18.244;2023-11-19T01:00:10;101397.05;;;-2.88;100.00
19789;BME280;10054;59.332;18.244;2023-11-19T01:02:40;101391.88;;;-2.88;100.00
19789;BME280;10054;59.332;18.244;2023-11-19T01:05:10;101391.84;;;-2.97;100.00
19789;BME280;10054;59.332;18.244;2023-11-19T01:07:40;101383.65;;;-3.06;100.00
19789;BME280;10054;59.332;18.244;2023-11-19T01:10:09;101387.44;;;-3.19;100.00
19789;BME280;10054;59.332;18.244;2023-11-19T01:12:39;101389.95;;;-3.30;100.00
19789;BME280;10054;59.332;18.244;2023-11-19T01:15:08;101380.02;;;-3.37;100.00
19789;BME280;10054;59.332;18.244;2023-11-19T01:17:40;101382.59;;;-3.40;100.00
19789;BME280;10054;59.332;18.244;2023-11-19T01:20:11;101374.39;;;-3.44;100.00
19789;BME280;10054;59.332;18.244;2023-11-19T01:22:41;101382.16;;;-3.39;100.00
19789;BME280;10054;59.332;18.244;2023-11-19T01:25:09;101378.75;;;-3.34;100.00
19789;BME280;10054;59.332;18.244;2023-11-19T01:27:39;101380.94;;;-3.28;100.00
19789;BME280;10054;59.332;18.244;2023-11-19T01:30:08;101374.48;;;-3.28;100.00
19789;BME280;10054;59.332;18.244;2023-11-19T01:32:39;101377.48;;;-3.31;100.00
19789;BME280;10054;59.332;18.244;2023-11-19T01:35:08;101380.91;;;-3.33;100.00
19789;BME280;10054;59.332;18.244;2023-11-19T01:37:37;101378.31;;;-3.36;100.00
19789;BME280;10054;59.332;18.244;2023-11-19T01:40:06;101378.34;;;-3.30;100.00
19789;BME280;10054;59.332;18.244;2023-11-19T01:42:38;101369.78;;;-3.24;100.00
19789;BME280;10054;59.332;18.244;2023-11-19T01:45:07;101371.09;;;-3.20;100.00
19789;BME280;10054;59.332;18.244;2023-11-19T01:47:37;101368.13;;;-3.12;100.00
19789;BME280;10054;59.332;18.244;2023-11-19T01:50:08;101365.17;;;-3.02;100.00
19789;BME280;10054;59.332;18.244;2023-11-19T01:52:37;101362.16;;;-2.95;100.00
19789;BME280;10054;59.332;18.244;2023-11-19T01:55:08;101355.27;;;-2.97;100.00
19789;BME280;10054;59.332;18.244;2023-11-19T01:57:38;101355.29;;;-3.00;100.00
19789;BME280;10054;59.332;18.244;2023-11-19T02:00:09;101349.25;;;-3.03;100.00
19789;BME280;10054;59.332;18.244;2023-11-19T02:02:41;101340.62;;;-3.08;100.00
19789;BME280;10054;59.332;18.244;2023-11-19T02:05:11;101340.17;;;-3.12;100.00
19789;BME280;10054;59.332;18.244;2023-11-19T02:07:43;101332.84;;;-3.16;100.00
19789;BME280;10054;59.332;18.244;2023-11-19T02:10:14;101326.80;;;-3.19;100.00
19789;BME280;10054;59.332;18.244;2023-11-19T02:12:44;101319.06;;;-3.19;100.00
19789;BME280;10054;59.332;18.244;2023-11-19T02:15:14;101321.20;;;-3.22;100.00
19789;BME280;10054;59.332;18.244;2023-11-19T02:17:43;101322.91;;;-3.24;100.00
19789;BME280;10054;59.332;18.244;2023-11-19T02:20:11;101319.02;;;-3.28;100.00
19789;BME280;10054;59.332;18.244;2023-11-19T02:22:42;101319.44;;;-3.31;100.00
19789;BME280;10054;59.332;18.244;2023-11-19T02:25:28;101319.44;;;-3.31;100.00
19789;BME280;10054;59.332;18.244;2023-11-19T02:27:59;101314.27;;;-3.34;100.00
19789;BME280;10054;59.332;18.244;2023-11-19T02:30:24;101320.69;;;-3.38;100.00
19789;BME280;10054;59.332;18.244;2023-11-19T02:32:56;101312.47;;;-3.47;100.00
19789;BME280;10054;59.332;18.244;2023-11-19T02:35:26;101303.84;;;-3.50;100.00
19789;BME280;10054;59.332;18.244;2023-11-19T02:37:55;101301.30;;;-3.46;100.00
19789;BME280;10054;59.332;18.244;2023-11-19T02:40:24;101300.00;;;-3.47;100.00
19789;BME280;10054;59.332;18.244;2023-11-19T02:42:53;101295.66;;;-3.54;100.00
19789;BME280;10054;59.332;18.244;2023-11-19T02:45:23;101295.20;;;-3.58;100.00
19789;BME280;10054;59.332;18.244;2023-11-19T02:47:53;101289.17;;;-3.60;100.00
19789;BME280;10054;59.332;18.244;2023-11-19T02:50:22;101292.59;;;-3.65;100.00
19789;BME280;10054;59.332;18.244;2023-11-19T02:52:55;101285.70;;;-3.67;100.00
19789;BME280;10054;59.332;18.244;2023-11-19T02:55:25;101286.97;;;-3.70;100.00
19789;BME280;10054;59.332;18.244;2023-11-19T02:57:55;101282.27;;;-3.72;100.00
19789;BME280;10054;59.332;18.244;2023-11-19T03:00:26;101281.81;;;-3.75;100.00
19789;BME280;10054;59.332;18.244;2023-11-19T03:03:02;101274.95;;;-3.73;100.00
19789;BME280;10054;59.332;18.244;2023-11-19T03:05:35;101272.80;;;-3.73;100.00
19789;BME280;10054;59.332;18.244;2023-11-19T03:08:04;101268.06;;;-3.75;100.00
19789;BME280;10054;59.332;18.244;2023-11-19T03:10:33;101260.31;;;-3.78;100.00
19789;BME280;10054;59.332;18.244;2023-11-19T03:13:02;101253.84;;;-3.83;100.00
19789;BME280;10054;59.332;18.244;2023-11-19T03:15:31;101244.80;;;-3.86;100.00
19789;BME280;10054;59.332;18.244;2023-11-19T03:18:00;101245.22;;;-3.86;100.00
19789;BME280;10054;59.332;18.244;2023-11-19T03:20:29;101243.05;;;-3.91;100.00
19789;BME280;10054;59.332;18.244;2023-11-19T03:22:57;101237.43;;;-3.95;100.00
19789;BME280;10054;59.332;18.244;2023-11-19T03:25:28;101243.05;;;-3.90;100.00
19789;BME280;10054;59.332;18.244;2023-11-19T03:27:58;101236.20;;;-3.85;100.00
19789;BME280;10054;59.332;18.244;2023-11-19T03:30:28;101229.70;;;-3.95;100.00
19789;BME280;10054;59.332;18.244;2023-11-19T03:32:58;101224.44;;;-4.11;100.00
19789;BME280;10054;59.332;18.244;2023-11-19T03:35:28;101217.95;;;-4.17;100.00
19789;BME280;10054;59.332;18.244;2023-11-19T03:37:58;101224.75;;;-4.26;100.00
19789;BME280;10054;59.332;18.244;2023-11-19T03:40:26;101218.70;;;-4.32;100.00
19789;BME280;10054;59.332;18.244;2023-11-19T03:42:56;101219.06;;;-4.41;100.00
19789;BME280;10054;59.332;18.244;2023-11-19T03:45:27;101216.44;;;-4.50;100.00
19789;BME280;10054;59.332;18.244;2023-11-19T03:47:55;101219.83;;;-4.56;100.00
19789;BME280;10054;59.332;18.244;2023-11-19T03:50:24;101211.19;;;-4.62;100.00
19789;BME280;10054;59.332;18.244;2023-11-19T03:52:53;101203.84;;;-4.68;100.00
19789;BME280;10054;59.332;18.244;2023-11-19T03:55:21;101200.85;;;-4.67;100.00
19789;BME280;10054;59.332;18.244;2023-11-19T03:57:50;101199.97;;;-4.69;100.00
19789;BME280;10054;59.332;18.244;2023-11-19T04:00:20;101205.11;;;-4.71;100.00
19789;BME280;10054;59.332;18.244;2023-11-19T04:02:48;101200.77;;;-4.76;100.00
19789;BME280;10054;59.332;18.244;2023-11-19T04:05:17;101202.89;;;-4.79;100.00
19789;BME280;10054;59.332;18.244;2023-11-19T04:07:46;101193.41;;;-4.83;100.00
19789;BME280;10054;59.332;18.244;2023-11-19T04:10:15;101196.81;;;-4.87;100.00
19789;BME280;10054;59.332;18.244;2023-11-19T04:12:44;101196.80;;;-4.88;100.00
19789;BME280;10054;59.332;18.244;2023-11-19T04:15:13;101190.31;;;-4.93;100.00
19789;BME280;10054;59.332;18.244;2023-11-19T04:17:43;101186.85;;;-4.97;100.00
19789;BME280;10054;59.332;18.244;2023-11-19T04:20:12;101173.11;;;-4.99;100.00
19789;BME280;10054;59.332;18.244;2023-11-19T04:22:41;101179.95;;;-5.01;100.00
19789;BME280;10054;59.332;18.244;2023-11-19T04:25:10;101173.53;;;-4.99;100.00
19789;BME280;10054;59.332;18.244;2023-11-19T04:27:39;101170.11;;;-4.98;100.00
19789;BME280;10054;59.332;18.244;2023-11-19T04:30:10;101167.12;;;-4.96;100.00
19789;BME280;10054;59.332;18.244;2023-11-19T04:32:38;101157.62;;;-5.03;100.00
19789;BME280;10054;59.332;18.244;2023-11-19T04:35:08;101158.04;;;-5.05;100.00
19789;BME280;10054;59.332;18.244;2023-11-19T04:37:37;101146.91;;;-5.04;100.00
19789;BME280;10054;59.332;18.244;2023-11-19T04:40:07;101152.45;;;-5.06;100.00
19789;BME280;10054;59.332;18.244;2023-11-19T04:42:37;101144.71;;;-5.09;100.00
19789;BME280;10054;59.332;18.244;2023-11-19T04:45:08;101147.31;;;-5.06;100.00
19789;BME280;10054;59.332;18.244;2023-11-19T04:47:37;101145.67;;;-4.98;100.00
19789;BME280;10054;59.332;18.244;2023-11-19T04:50:07;101145.38;;;-4.82;100.00
19789;BME280;10054;59.332;18.244;2023-11-19T04:52:40;101144.14;;;-4.78;100.00
19789;BME280;10054;59.332;18.244;2023-11-19T04:55:12;101147.98;;;-4.79;100.00
19789;BME280;10054;59.332;18.244;2023-11-19T04:57:41;101135.10;;;-4.81;100.00
19789;BME280;10054;59.332;18.244;2023-11-19T05:00:11;101141.13;;;-4.79;100.00
19789;BME280;10054;59.332;18.244;2023-11-19T05:02:41;101132.12;;;-4.79;100.00
19789;BME280;10054;59.332;18.244;2023-11-19T05:05:10;101132.12;;;-4.79;100.00
19789;BME280;10054;59.332;18.244;2023-11-19T05:07:39;101130.83;;;-4.79;100.00
19789;BME280;10054;59.332;18.244;2023-11-19T05:10:08;101132.55;;;-4.78;100.00
19789;BME280;10054;59.332;18.244;2023-11-19T05:12:37;101124.01;;;-4.74;100.00
19789;BME280;10054;59.332;18.244;2023-11-19T05:15:06;101120.17;;;-4.71;100.00
19789;BME280;10054;59.332;18.244;2023-11-19T05:17:35;101117.17;;;-4.70;100.00
19789;BME280;10054;59.332;18.244;2023-11-19T05:20:05;101115.47;;;-4.68;100.00
19789;BME280;10054;59.332;18.244;2023-11-19T05:22:36;101115.50;;;-4.64;100.00
19789;BME280;10054;59.332;18.244;2023-11-19T05:25:05;101112.97;;;-4.59;100.00
19789;BME280;10054;59.332;18.244;2023-11-19T05:27:34;101113.84;;;-4.55;100.00
19789;BME280;10054;59.332;18.244;2023-11-19T05:30:05;101104.44;;;-4.50;100.00
19789;BME280;10054;59.332;18.244;2023-11-19T05:32:38;101105.77;;;-4.46;100.00
19789;BME280;10054;59.332;18.244;2023-11-19T05:35:08;101101.50;;;-4.36;100.00
19789;BME280;10054;59.332;18.244;2023-11-19T05:37:37;101102.88;;;-4.19;100.00
19789;BME280;10054;59.332;18.244;2023-11-19T05:40:06;101098.19;;;-4.14;100.00
19789;BME280;10054;59.332;18.244;2023-11-19T05:42:38;101100.34;;;-4.12;100.00
19789;BME280;10054;59.332;18.244;2023-11-19T05:45:08;101100.37;;;-4.07;100.00
19789;BME280;10054;59.332;18.244;2023-11-19T05:47:37;101095.22;;;-4.06;100.00
19789;BME280;10054;59.332;18.244;2023-11-19T05:50:06;101091.79;;;-4.05;100.00
19789;BME280;10054;59.332;18.244;2023-11-19T05:52:36;101092.65;;;-4.04;100.00
19789;BME280;10054;59.332;18.244;2023-11-19T05:55:05;101084.06;;;-4.05;100.00
19789;BME280;10054;59.332;18.244;2023-11-19T05:57:38;101090.08;;;-4.03;100.00
19789;BME280;10054;59.332;18.244;2023-11-19T06:00:08;101081.50;;;-4.00;100.00
19789;BME280;10054;59.332;18.244;2023-11-19T06:02:41;101084.09;;;-3.99;100.00
19789;BME280;10054;59.332;18.244;2023-11-19T06:05:10;101084.52;;;-3.98;100.00
19789;BME280;10054;59.332;18.244;2023-11-19T06:07:39;101080.65;;;-3.99;100.00
19789;BME280;10054;59.332;18.244;2023-11-19T06:10:09;101081.51;;;-3.99;100.00
19789;BME280;10054;59.332;18.244;2023-11-19T06:12:38;101074.20;;;-4.01;100.00
19789;BME280;10054;59.332;18.244;2023-11-19T06:15:09;101076.34;;;-4.00;100.00
19789;BME280;10054;59.332;18.244;2023-11-19T06:17:38;101087.52;;;-3.98;100.00
19789;BME280;10054;59.332;18.244;2023-11-19T06:20:08;101079.80;;;-3.95;100.00
19789;BME280;10054;59.332;18.244;2023-11-19T06:22:37;101075.95;;;-3.90;100.00
19789;BME280;10054;59.332;18.244;2023-11-19T06:25:07;101074.69;;;-3.86;100.00
19789;BME280;10054;59.332;18.244;2023-11-19T06:27:35;101073.84;;;-3.82;100.00
19789;BME280;10054;59.332;18.244;2023-11-19T06:30:05;101078.58;;;-3.78;100.00
19789;BME280;10054;59.332;18.244;2023-11-19T06:32:34;101074.72;;;-3.75;100.00
19789;BME280;10054;59.332;18.244;2023-11-19T06:35:03;101070.00;;;-3.74;100.00
19789;BME280;10054;59.332;18.244;2023-11-19T06:37:35;101070.86;;;-3.72;100.00
19789;BME280;10054;59.332;18.244;2023-11-19T06:40:05;101066.97;;;-3.71;100.00
19789;BME280;10054;59.332;18.244;2023-11-19T06:42:34;101063.11;;;-3.68;100.00
19789;BME280;10054;59.332;18.244;2023-11-19T06:45:03;101063.98;;;-3.62;100.00
19789;BME280;10054;59.332;18.244;2023-11-19T06:47:33;101054.55;;;-3.51;100.00
19789;BME280;10054;59.332;18.244;2023-11-19T06:50:02;101048.55;;;-3.38;100.00
19789;BME280;10054;59.332;18.244;2023-11-19T06:52:32;101046.84;;;-3.36;100.00
19789;BME280;10054;59.332;18.244;2023-11-19T06:55:01;101045.98;;;-3.37;100.00
19789;BME280;10054;59.332;18.244;2023-11-19T06:57:30;101038.66;;;-3.42;100.00
19789;BME280;10054;59.332;18.244;2023-11-19T06:59:59;101038.22;;;-3.50;100.00
19789;BME280;10054;59.332;18.244;2023-11-19T07:02:28;101042.51;;;-3.57;100.00
19789;BME280;10054;59.332;18.244;2023-11-19T07:04:58;101037.34;;;-3.65;100.00
19789;BME280;10054;59.332;18.244;2023-11-19T07:07:27;101033.03;;;-3.69;100.00
19789;BME280;10054;59.332;18.244;2023-11-19T07:09:56;101024.45;;;-3.74;100.00
19789;BME280;10054;59.332;18.244;2023-11-19T07:12:25;101019.71;;;-3.82;100.00
19789;BME280;10054;59.332;18.244;2023-11-19T07:14:56;101024.86;;;-3.85;100.00
19789;BME280;10054;59.332;18.244;2023-11-19T07:17:25;101036.86;;;-3.94;100.00
19789;BME280;10054;59.332;18.244;2023-11-19T07:19:54;101028.24;;;-4.03;100.00
19789;BME280;10054;59.332;18.244;2023-11-19T07:22:25;101031.65;;;-4.10;100.00
19789;BME280;10054;59.332;18.244;2023-11-19T07:24:54;101029.06;;;-4.14;100.00
19789;BME280;10054;59.332;18.244;2023-11-19T07:27:23;101042.80;;;-4.14;100.00
19789;BME280;10054;59.332;18.244;2023-11-19T07:29:51;101033.75;;;-4.20;100.00
19789;BME280;10054;59.332;18.244;2023-11-19T07:32:20;101027.74;;;-4.20;100.00
19789;BME280;10054;59.332;18.244;2023-11-19T07:34:49;101021.75;;;-4.15;100.00
19789;BME280;10054;59.332;18.244;2023-11-19T07:37:17;101022.66;;;-4.02;100.00
19789;BME280;10054;59.332;18.244;2023-11-19T07:39:46;101017.13;;;-3.86;100.00
19789;BME280;10054;59.332;18.244;2023-11-19T07:42:15;101015.84;;;-3.83;100.00
19789;BME280;10054;59.332;18.244;2023-11-19T07:44:44;101022.29;;;-3.83;100.00
19789;BME280;10054;59.332;18.244;2023-11-19T07:47:13;101014.54;;;-3.89;100.00
19789;BME280;10054;59.332;18.244;2023-11-19T07:49:42;101013.67;;;-3.91;100.00
19789;BME280;10054;59.332;18.244;2023-11-19T07:52:12;101015.81;;;-3.95;100.00
19789;BME280;10054;59.332;18.244;2023-11-19T07:54:41;101015.38;;;-3.97;100.00
19789;BME280;10054;59.332;18.244;2023-11-19T07:57:10;101008.51;;;-3.96;100.00
19789;BME280;10054;59.332;18.244;2023-11-19T07:59:38;101011.52;;;-3.92;100.00
19789;BME280;10054;59.332;18.244;2023-11-19T08:02:07;101020.11;;;-3.94;100.00
19789;BME280;10054;59.332;18.244;2023-11-19T08:04:36;101014.52;;;-3.97;100.00
19789;BME280;10054;59.332;18.244;2023-11-19T08:07:07;101012.37;;;-3.98;100.00
19789;BME280;10054;59.332;18.244;2023-11-19T08:09:35;101021.80;;;-4.01;100.00
19789;BME280;10054;59.332;18.244;2023-11-19T08:12:05;101015.80;;;-3.99;100.00
19789;BME280;10054;59.332;18.244;2023-11-19T08:14:35;101016.66;;;-3.97;100.00
19789;BME280;10054;59.332;18.244;2023-11-19T08:17:05;101011.94;;;-3.99;100.00
19789;BME280;10054;59.332;18.244;2023-11-19T08:19:34;101024.39;;;-3.98;100.00
19789;BME280;10054;59.332;18.244;2023-11-19T08:22:03;101010.22;;;-3.98;100.00
19789;BME280;10054;59.332;18.244;2023-11-19T08:24:31;101005.94;;;-3.94;100.00
19789;BME280;10054;59.332;18.244;2023-11-19T08:27:00;101012.41;;;-3.79;100.00
19789;BME280;10054;59.332;18.244;2023-11-19T08:29:29;101010.27;;;-3.63;100.00
19789;BME280;10054;59.332;18.244;2023-11-19T08:31:58;100998.23;;;-3.59;100.00
19789;BME280;10054;59.332;18.244;2023-11-19T08:34:30;101005.98;;;-3.56;100.00
19789;BME280;10054;59.332;18.244;2023-11-19T08:37:00;101005.12;;;-3.57;100.00
19789;BME280;10054;59.332;18.244;2023-11-19T08:39:29;101010.28;;;-3.55;100.00
19789;BME280;10054;59.332;18.244;2023-11-19T08:41:58;101008.98;;;-3.57;100.00
19789;BME280;10054;59.332;18.244;2023-11-19T08:44:26;101008.56;;;-3.55;100.00
19789;BME280;10054;59.332;18.244;2023-11-19T08:46:55;100996.95;;;-3.53;100.00
19789;BME280;10054;59.332;18.244;2023-11-19T08:49:24;100999.11;;;-3.50;100.00
19789;BME280;10054;59.332;18.244;2023-11-19T08:51:53;101001.27;;;-3.45;100.00
19789;BME280;10054;59.332;18.244;2023-11-19T08:54:21;100996.11;;;-3.42;100.00
19789;BME280;10054;59.332;18.244;2023-11-19T08:56:50;100998.26;;;-3.40;100.00
19789;BME280;10054;59.332;18.244;2023-11-19T08:59:19;100992.24;;;-3.36;100.00
19789;BME280;10054;59.332;18.244;2023-11-19T09:01:48;100996.55;;;-3.32;100.00
19789;BME280;10054;59.332;18.244;2023-11-19T09:04:17;100987.52;;;-3.27;100.00
19789;BME280;10054;59.332;18.244;2023-11-19T09:06:48;100985.79;;;-3.23;100.00
19789;BME280;10054;59.332;18.244;2023-11-19T09:09:16;100987.51;;;-3.19;100.00
19789;BME280;10054;59.332;18.244;2023-11-19T09:11:45;100983.20;;;-3.16;100.00
19789;BME280;10054;59.332;18.244;2023-11-19T09:14:15;100986.22;;;-3.13;100.00
19789;BME280;10054;59.332;18.244;2023-11-19T09:16:45;100984.92;;;-3.07;100.00
19789;BME280;10054;59.332;18.244;2023-11-19T09:19:14;100977.17;;;-3.04;100.00
19789;BME280;10054;59.332;18.244;2023-11-19T09:21:43;100974.16;;;-3.01;100.00
19789;BME280;10054;59.332;18.244;2023-11-19T09:24:12;100978.85;;;-2.97;100.00
19789;BME280;10054;59.332;18.244;2023-11-19T09:26:41;100973.25;;;-2.93;100.00
19789;BME280;10054;59.332;18.244;2023-11-19T09:29:10;100968.09;;;-2.90;100.00
19789;BME280;10054;59.332;18.244;2023-11-19T09:31:39;100961.20;;;-2.88;100.00
19789;BME280;10054;59.332;18.244;2023-11-19T09:34:08;100960.76;;;-2.85;100.00
19789;BME280;10054;59.332;18.244;2023-11-19T09:36:37;100958.17;;;-2.82;100.00
19789;BME280;10054;59.332;18.244;2023-11-19T09:39:06;100950.84;;;-2.76;100.00
19789;BME280;10054;59.332;18.244;2023-11-19T09:41:35;100943.08;;;-2.72;100.00
19789;BME280;10054;59.332;18.244;2023-11-19T09:44:05;100936.62;;;-2.70;100.00
19789;BME280;10054;59.332;18.244;2023-11-19T09:46:34;100941.77;;;-2.67;100.00
19789;BME280;10054;59.332;18.244;2023-11-19T09:49:06;100946.50;;;-2.65;100.00
19789;BME280;10054;59.332;18.244;2023-11-19T09:51:36;100940.04;;;-2.63;100.00
19789;BME280;10054;59.332;18.244;2023-11-19T09:54:06;100934.00;;;-2.61;100.00
19789;BME280;10054;59.332;18.244;2023-11-19T09:56:36;100918.50;;;-2.59;100.00
19789;BME280;10054;59.332;18.244;2023-11-19T09:59:07;100919.36;;;-2.59;100.00
19789;BME280;10054;59.332;18.244;2023-11-19T10:01:38;100928.41;;;-2.59;100.00
19789;BME280;10054;59.332;18.244;2023-11-19T10:04:08;100929.70;;;-2.59;100.00
19789;BME280;10054;59.332;18.244;2023-11-19T10:06:54;100926.24;;;-2.56;100.00
19789;BME280;10054;59.332;18.244;2023-11-19T10:09:23;100913.31;;;-2.53;100.00
19789;BME280;10054;59.332;18.244;2023-11-19T10:11:52;100911.59;;;-2.51;100.00
19789;BME280;10054;59.332;18.244;2023-11-19T10:14:23;100915.45;;;-2.50;100.00
19789;BME280;10054;59.332;18.244;2023-11-19T10:16:52;100907.26;;;-2.46;100.00
19789;BME280;10054;59.332;18.244;2023-11-19T10:19:21;100897.78;;;-2.46;100.00
19789;BME280;10054;59.332;18.244;2023-11-19T10:21:50;100897.34;;;-2.42;100.00
19789;BME280;10054;59.332;18.244;2023-11-19T10:24:32;100896.47;;;-2.41;100.00
19789;BME280;10054;59.332;18.244;2023-11-19T10:27:01;100894.73;;;-2.38;100.00
19789;BME280;10054;59.332;18.244;2023-11-19T10:29:33;100896.88;;;-2.37;100.00
19789;BME280;10054;59.332;18.244;2023-11-19T10:32:03;100895.57;;;-2.34;100.00
19789;BME280;10054;59.332;18.244;2023-11-19T10:34:32;100892.53;;;-2.30;100.00
19789;BME280;10054;59.332;18.244;2023-11-19T10:37:01;100891.24;;;-2.30;100.00
19789;BME280;10054;59.332;18.244;2023-11-19T10:39:53;100891.68;;;-2.31;100.00
19789;BME280;10054;59.332;18.244;2023-11-19T10:42:22;100886.95;;;-2.33;100.00
19789;BME280;10054;59.332;18.244;2023-11-19T10:44:51;100866.30;;;-2.36;100.00
19789;BME280;10054;59.332;18.244;2023-11-19T10:47:20;100861.55;;;-2.34;100.00
19789;BME280;10054;59.332;18.244;2023-11-19T10:49:50;100860.25;;;-2.32;100.00
19789;BME280;10054;59.332;18.244;2023-11-19T10:52:19;100858.53;;;-2.33;100.00
19789;BME280;10054;59.332;18.244;2023-11-19T10:54:50;100858.54;;;-2.35;100.00
19789;BME280;10054;59.332;18.244;2023-11-19T10:57:22;100860.26;;;-2.34;100.00
19789;BME280;10054;59.332;18.244;2023-11-19T10:59:59;100857.67;;;-2.34;100.00
19789;BME280;10054;59.332;18.244;2023-11-19T11:02:28;100864.56;;;-2.33;100.00
19789;BME280;10054;59.332;18.244;2023-11-19T11:04:57;100861.09;;;-2.28;100.00
19789;BME280;10054;59.332;18.244;2023-11-19T11:07:27;100862.81;;;-2.29;100.00
19789;BME280;10054;59.332;18.244;2023-11-19T11:09:58;100854.61;;;-2.25;100.00
19789;BME280;10054;59.332;18.244;2023-11-19T11:12:27;100849.86;;;-2.23;100.00
19789;BME280;10054;59.332;18.244;2023-11-19T11:14:57;100843.77;;;-2.19;100.00
19789;BME280;10054;59.332;18.244;2023-11-19T11:17:28;100841.16;;;-2.16;100.00
19789;BME280;10054;59.332;18.244;2023-11-19T11:19:58;100845.46;;;-2.15;100.00
19789;BME280;10054;59.332;18.244;2023-11-19T11:22:28;100840.72;;;-2.14;100.00
19789;BME280;10054;59.332;18.244;2023-11-19T11:25:06;100836.83;;;-2.12;100.00
19789;BME280;10054;59.332;18.244;2023-11-19T11:28:01;100835.09;;;-2.10;100.00
19789;BME280;10054;59.332;18.244;2023-11-19T11:30:39;100832.49;;;-2.09;100.00
19789;BME280;10054;59.332;18.244;2023-11-19T11:35:49;100827.73;;;-2.06;100.00
19789;BME280;10054;59.332;18.244;2023-11-19T11:38:15;100823.02;;;-2.10;100.00
19789;BME280;10054;59.332;18.244;2023-11-19T11:41:14;100822.18;;;-2.12;100.00
19789;BME280;10054;59.332;18.244;2023-11-19T11:43:54;100816.14;;;-2.11;100.00
19789;BME280;10054;59.332;18.244;2023-11-19T11:46:09;100816.59;;;-2.13;100.00
19789;BME280;10054;59.332;18.244;2023-11-19T11:48:42;100820.04;;;-2.14;100.00
19789;BME280;10054;59.332;18.244;2023-11-19T11:51:09;100823.92;;;-2.14;100.00
19789;BME280;10054;59.332;18.244;2023-11-19T11:53:38;100816.59;;;-2.14;100.00
19789;BME280;10054;59.332;18.244;2023-11-19T11:56:08;100810.15;;;-2.16;100.00
19789;BME280;10054;59.332;18.244;2023-11-19T11:58:37;100816.16;;;-2.14;100.00
19789;BME280;10054;59.332;18.244;2023-11-19T12:01:08;100808.42;;;-2.15;100.00
19789;BME280;10054;59.332;18.244;2023-11-19T12:03:38;100804.11;;;-2.15;100.00
19789;BME280;10054;59.332;18.244;2023-11-19T12:06:07;100811.03;;;-2.18;100.00
19789;BME280;10054;59.332;18.244;2023-11-19T12:08:39;100810.61;;;-2.19;100.00
19789;BME280;10054;59.332;18.244;2023-11-19T12:11:09;100814.49;;;-2.21;100.00
19789;BME280;10054;59.332;18.244;2023-11-19T12:13:53;100813.20;;;-2.21;100.00
19789;BME280;10054;59.332;18.244;2023-11-19T12:16:23;100811.48;;;-2.22;100.00
19789;BME280;10054;59.332;18.244;2023-11-19T12:18:53;100809.80;;;-2.23;100.00
19789;BME280;10054;59.332;18.244;2023-11-19T12:21:30;100807.61;;;-2.22;100.00
19789;BME280;10054;59.332;18.244;2023-11-19T12:24:00;100805.44;;;-2.19;100.00
19789;BME280;10054;59.332;18.244;2023-11-19T12:26:36;100798.55;;;-2.20;100.00
19789;BME280;10054;59.332;18.244;2023-11-19T12:29:05;100791.67;;;-2.21;100.00
19789;BME280;10054;59.332;18.244;2023-11-19T12:31:35;100791.29;;;-2.24;100.00
19789;BME280;10054;59.332;18.244;2023-11-19T12:34:07;100780.09;;;-2.24;100.00
19789;BME280;10054;59.332;18.244;2023-11-19T12:36:38;100779.67;;;-2.25;100.00
19789;BME280;10054;59.332;18.244;2023-11-19T12:39:08;100785.71;;;-2.26;100.00
19789;BME280;10054;59.332;18.244;2023-11-19T12:41:51;100779.69;;;-2.27;100.00
19789;BME280;10054;59.332;18.244;2023-11-19T12:44:20;100776.68;;;-2.28;100.00
19789;BME280;10054;59.332;18.244;2023-11-19T12:47:10;100773.67;;;-2.29;100.00